Terminal Aerodrome Forecast
Issued by NWS

Home | Current Version | Previous Version | Text Only | Print | Product List | Glossary On
Versions: 1 2 3 4 5 6 7 8 9 10 11 12 13 14 15 16 17
000
FTUS44 KBMX 201100
TAFTOI
TAF
KTOI 201136Z 2012/2112 35005KT 5SM -RA BR BKN005 OVC020
      TEMPO 2012/2015 2SM -RA BR OVC005
     FM201700 01005KT P6SM OVC040
     FM202000 03004KT P6SM SCT025 BKN060
     FM210700 03003KT 5SM BR OVC010=

USA.gov is the U.S. government's official web portal to all federal, state and local government web resources and services.